sensor_id;sensor_type;location;lat;lon;timestamp;temperature;humidity
40516;DHT22;26216;53.724;9.898;2023-07-20T00:01:29;16.90;95.00
40516;DHT22;26216;53.724;9.898;2023-07-20T00:03:55;16.90;95.00
40516;DHT22;26216;53.724;9.898;2023-07-20T00:06:25;16.90;95.10
40516;DHT22;26216;53.724;9.898;2023-07-20T00:08:55;17.00;95.30
40516;DHT22;26216;53.724;9.898;2023-07-20T00:11:26;17.00;95.20
40516;DHT22;26216;53.724;9.898;2023-07-20T00:13:52;17.00;95.30
40516;DHT22;26216;53.724;9.898;2023-07-20T00:16:21;17.00;95.30
40516;DHT22;26216;53.724;9.898;2023-07-20T00:18:47;17.00;95.30
40516;DHT22;26216;53.724;9.898;2023-07-20T00:21:13;17.10;95.30
40516;DHT22;26216;53.724;9.898;2023-07-20T00:23:43;17.10;95.40
40516;DHT22;26216;53.724;9.898;2023-07-20T00:26:09;17.10;95.40
40516;DHT22;26216;53.724;9.898;2023-07-20T00:28:35;17.10;95.50
40516;DHT22;26216;53.724;9.898;2023-07-20T00:31:01;17.10;95.60
40516;DHT22;26216;53.724;9.898;2023-07-20T00:33:28;17.10;95.70
40516;DHT22;26216;53.724;9.898;2023-07-20T00:35:54;17.10;95.60
40516;DHT22;26216;53.724;9.898;2023-07-20T00:38:20;17.10;95.60
40516;DHT22;26216;53.724;9.898;2023-07-20T00:40:46;17.10;95.60
40516;DHT22;26216;53.724;9.898;2023-07-20T00:43:12;17.20;95.70
40516;DHT22;26216;53.724;9.898;2023-07-20T00:45:45;17.20;95.70
40516;DHT22;26216;53.724;9.898;2023-07-20T00:48:11;17.20;95.70
40516;DHT22;26216;53.724;9.898;2023-07-20T00:50:39;17.20;95.70
40516;DHT22;26216;53.724;9.898;2023-07-20T00:53:06;17.20;95.80
40516;DHT22;26216;53.724;9.898;2023-07-20T00:55:32;17.20;95.80
40516;DHT22;26216;53.724;9.898;2023-07-20T00:57:59;17.20;95.80
40516;DHT22;26216;53.724;9.898;2023-07-20T01:00:25;17.20;95.90
40516;DHT22;26216;53.724;9.898;2023-07-20T01:02:51;17.20;95.90
40516;DHT22;26216;53.724;9.898;2023-07-20T01:05:17;17.30;95.90
40516;DHT22;26216;53.724;9.898;2023-07-20T01:07:53;17.30;96.00
40516;DHT22;26216;53.724;9.898;2023-07-20T01:10:31;17.30;96.20
40516;DHT22;26216;53.724;9.898;2023-07-20T01:12:59;17.30;96.20
40516;DHT22;26216;53.724;9.898;2023-07-20T01:15:26;17.40;96.20
40516;DHT22;26216;53.724;9.898;2023-07-20T01:17:51;17.30;96.10
40516;DHT22;26216;53.724;9.898;2023-07-20T01:20:19;17.40;96.10
40516;DHT22;26216;53.724;9.898;2023-07-20T01:31:43;17.40;96.30
40516;DHT22;26216;53.724;9.898;2023-07-20T01:34:03;17.40;96.50
40516;DHT22;26216;53.724;9.898;2023-07-20T01:36:35;17.40;96.30
40516;DHT22;26216;53.724;9.898;2023-07-20T01:39:02;17.40;96.40
40516;DHT22;26216;53.724;9.898;2023-07-20T01:41:28;17.40;96.40
40516;DHT22;26216;53.724;9.898;2023-07-20T01:43:57;17.50;96.50
40516;DHT22;26216;53.724;9.898;2023-07-20T01:46:24;17.40;96.50
40516;DHT22;26216;53.724;9.898;2023-07-20T01:48:49;17.40;96.50
40516;DHT22;26216;53.724;9.898;2023-07-20T01:51:16;17.40;96.50
40516;DHT22;26216;53.724;9.898;2023-07-20T01:53:43;17.40;96.60
40516;DHT22;26216;53.724;9.898;2023-07-20T01:56:09;17.40;96.60
40516;DHT22;26216;53.724;9.898;2023-07-20T01:58:38;17.40;96.60
40516;DHT22;26216;53.724;9.898;2023-07-20T02:01:04;17.40;96.70
40516;DHT22;26216;53.724;9.898;2023-07-20T02:03:30;17.40;96.70
40516;DHT22;26216;53.724;9.898;2023-07-20T02:05:56;17.40;96.70
40516;DHT22;26216;53.724;9.898;2023-07-20T02:08:22;17.40;96.70
40516;DHT22;26216;53.724;9.898;2023-07-20T02:10:49;17.40;96.70
40516;DHT22;26216;53.724;9.898;2023-07-20T02:13:15;17.40;96.70
40516;DHT22;26216;53.724;9.898;2023-07-20T02:15:44;17.40;96.70
40516;DHT22;26216;53.724;9.898;2023-07-20T02:18:10;17.40;96.80
40516;DHT22;26216;53.724;9.898;2023-07-20T02:20:36;17.40;96.70
40516;DHT22;26216;53.724;9.898;2023-07-20T02:23:02;17.40;96.80
40516;DHT22;26216;53.724;9.898;2023-07-20T02:25:27;17.40;96.80
40516;DHT22;26216;53.724;9.898;2023-07-20T02:27:53;17.40;96.90
40516;DHT22;26216;53.724;9.898;2023-07-20T02:30:19;17.40;96.90
40516;DHT22;26216;53.724;9.898;2023-07-20T02:32:45;17.40;96.90
40516;DHT22;26216;53.724;9.898;2023-07-20T02:35:11;17.40;96.90
40516;DHT22;26216;53.724;9.898;2023-07-20T02:37:37;17.40;97.00
40516;DHT22;26216;53.724;9.898;2023-07-20T02:40:03;17.40;97.00
40516;DHT22;26216;53.724;9.898;2023-07-20T02:42:30;17.40;97.00
40516;DHT22;26216;53.724;9.898;2023-07-20T02:44:56;17.40;97.00
40516;DHT22;26216;53.724;9.898;2023-07-20T02:47:22;17.40;97.10
40516;DHT22;26216;53.724;9.898;2023-07-20T02:49:48;17.40;97.10
40516;DHT22;26216;53.724;9.898;2023-07-20T02:52:14;17.40;97.10
40516;DHT22;26216;53.724;9.898;2023-07-20T02:54:39;17.40;97.20
40516;DHT22;26216;53.724;9.898;2023-07-20T02:57:05;17.40;97.20
40516;DHT22;26216;53.724;9.898;2023-07-20T02:59:31;17.40;97.20
40516;DHT22;26216;53.724;9.898;2023-07-20T03:01:57;17.40;97.30
40516;DHT22;26216;53.724;9.898;2023-07-20T03:04:27;17.40;97.30
40516;DHT22;26216;53.724;9.898;2023-07-20T03:06:53;17.50;97.40
40516;DHT22;26216;53.724;9.898;2023-07-20T03:09:19;17.50;97.40
40516;DHT22;26216;53.724;9.898;2023-07-20T03:11:45;17.40;97.30
40516;DHT22;26216;53.724;9.898;2023-07-20T03:14:11;17.50;97.60
40516;DHT22;26216;53.724;9.898;2023-07-20T03:16:37;17.50;97.50
40516;DHT22;26216;53.724;9.898;2023-07-20T03:19:02;17.50;97.50
40516;DHT22;26216;53.724;9.898;2023-07-20T03:21:29;17.50;97.60
40516;DHT22;26216;53.724;9.898;2023-07-20T03:23:55;17.40;97.60
40516;DHT22;26216;53.724;9.898;2023-07-20T03:26:20;17.50;97.60
40516;DHT22;26216;53.724;9.898;2023-07-20T03:28:46;17.40;97.60
40516;DHT22;26216;53.724;9.898;2023-07-20T03:31:12;17.50;97.70
40516;DHT22;26216;53.724;9.898;2023-07-20T03:33:40;17.50;97.70
40516;DHT22;26216;53.724;9.898;2023-07-20T03:36:06;17.50;97.70
40516;DHT22;26216;53.724;9.898;2023-07-20T03:38:32;17.50;97.70
40516;DHT22;26216;53.724;9.898;2023-07-20T03:40:59;17.40;97.70
40516;DHT22;26216;53.724;9.898;2023-07-20T03:43:27;17.50;97.80
40516;DHT22;26216;53.724;9.898;2023-07-20T03:45:53;17.40;97.80
40516;DHT22;26216;53.724;9.898;2023-07-20T03:48:26;17.40;97.80
40516;DHT22;26216;53.724;9.898;2023-07-20T03:50:53;17.40;97.90
40516;DHT22;26216;53.724;9.898;2023-07-20T03:53:19;17.40;97.90
40516;DHT22;26216;53.724;9.898;2023-07-20T03:55:47;17.40;97.90
40516;DHT22;26216;53.724;9.898;2023-07-20T03:58:13;17.40;98.00
40516;DHT22;26216;53.724;9.898;2023-07-20T04:00:39;17.40;98.00
40516;DHT22;26216;53.724;9.898;2023-07-20T04:03:06;17.40;98.00
40516;DHT22;26216;53.724;9.898;2023-07-20T04:05:32;17.40;98.00
40516;DHT22;26216;53.724;9.898;2023-07-20T04:07:58;17.40;98.10
40516;DHT22;26216;53.724;9.898;2023-07-20T04:10:24;17.40;98.10
40516;DHT22;26216;53.724;9.898;2023-07-20T04:12:50;17.40;98.20
40516;DHT22;26216;53.724;9.898;2023-07-20T04:15:16;17.40;98.10
40516;DHT22;26216;53.724;9.898;2023-07-20T04:17:42;17.40;98.10
40516;DHT22;26216;53.724;9.898;2023-07-20T04:20:09;17.40;98.10
40516;DHT22;26216;53.724;9.898;2023-07-20T04:22:35;17.40;98.10
40516;DHT22;26216;53.724;9.898;2023-07-20T04:25:01;17.40;98.20
40516;DHT22;26216;53.724;9.898;2023-07-20T04:27:27;17.30;98.20
40516;DHT22;26216;53.724;9.898;2023-07-20T04:29:53;17.30;98.30
40516;DHT22;26216;53.724;9.898;2023-07-20T04:32:19;17.40;98.40
40516;DHT22;26216;53.724;9.898;2023-07-20T04:34:47;17.40;98.40
40516;DHT22;26216;53.724;9.898;2023-07-20T04:37:13;17.40;98.50
40516;DHT22;26216;53.724;9.898;2023-07-20T04:39:39;17.40;98.50
40516;DHT22;26216;53.724;9.898;2023-07-20T04:42:06;17.50;98.60
40516;DHT22;26216;53.724;9.898;2023-07-20T04:44:32;17.50;98.70
40516;DHT22;26216;53.724;9.898;2023-07-20T04:46:58;17.50;98.70
40516;DHT22;26216;53.724;9.898;2023-07-20T04:49:24;17.60;98.80
40516;DHT22;26216;53.724;9.898;2023-07-20T04:51:52;17.60;98.70
40516;DHT22;26216;53.724;9.898;2023-07-20T04:54:21;17.70;98.70
40516;DHT22;26216;53.724;9.898;2023-07-20T04:56:47;17.70;98.80
40516;DHT22;26216;53.724;9.898;2023-07-20T04:59:15;17.80;98.80
40516;DHT22;26216;53.724;9.898;2023-07-20T05:01:42;17.80;98.80
40516;DHT22;26216;53.724;9.898;2023-07-20T05:04:10;17.90;98.80
40516;DHT22;26216;53.724;9.898;2023-07-20T05:06:37;18.00;98.70
40516;DHT22;26216;53.724;9.898;2023-07-20T05:09:06;18.00;98.90
40516;DHT22;26216;53.724;9.898;2023-07-20T05:11:33;18.10;99.00
40516;DHT22;26216;53.724;9.898;2023-07-20T05:14:00;18.20;99.10
40516;DHT22;26216;53.724;9.898;2023-07-20T05:16:27;18.20;99.30
40516;DHT22;26216;53.724;9.898;2023-07-20T05:18:55;18.30;99.20
40516;DHT22;26216;53.724;9.898;2023-07-20T05:21:24;18.40;99.20
40516;DHT22;26216;53.724;9.898;2023-07-20T05:23:50;18.50;99.20
40516;DHT22;26216;53.724;9.898;2023-07-20T05:26:19;18.60;99.30
40516;DHT22;26216;53.724;9.898;2023-07-20T05:28:45;18.60;99.30
40516;DHT22;26216;53.724;9.898;2023-07-20T05:31:11;18.70;99.40
40516;DHT22;26216;53.724;9.898;2023-07-20T05:33:39;18.80;99.40
40516;DHT22;26216;53.724;9.898;2023-07-20T05:36:06;18.90;99.50
40516;DHT22;26216;53.724;9.898;2023-07-20T05:38:50;19.00;99.50
40516;DHT22;26216;53.724;9.898;2023-07-20T05:41:18;19.10;99.40
40516;DHT22;26216;53.724;9.898;2023-07-20T05:43:48;19.20;98.90
40516;DHT22;26216;53.724;9.898;2023-07-20T05:46:14;19.30;98.60
40516;DHT22;26216;53.724;9.898;2023-07-20T05:48:41;19.30;98.50
40516;DHT22;26216;53.724;9.898;2023-07-20T05:51:10;19.40;98.60
40516;DHT22;26216;53.724;9.898;2023-07-20T05:53:37;19.40;98.60
40516;DHT22;26216;53.724;9.898;2023-07-20T05:56:05;19.50;98.60
40516;DHT22;26216;53.724;9.898;2023-07-20T05:58:31;19.50;98.60
40516;DHT22;26216;53.724;9.898;2023-07-20T06:01:03;19.60;98.40
40516;DHT22;26216;53.724;9.898;2023-07-20T06:03:34;19.60;98.40
40516;DHT22;26216;53.724;9.898;2023-07-20T06:06:03;19.70;98.40
40516;DHT22;26216;53.724;9.898;2023-07-20T06:08:35;19.70;98.30
40516;DHT22;26216;53.724;9.898;2023-07-20T06:11:13;19.90;98.20
40516;DHT22;26216;53.724;9.898;2023-07-20T06:13:42;20.00;97.80
40516;DHT22;26216;53.724;9.898;2023-07-20T06:16:14;20.00;97.20
40516;DHT22;26216;53.724;9.898;2023-07-20T06:18:46;20.00;97.20
40516;DHT22;26216;53.724;9.898;2023-07-20T06:21:14;20.10;97.50
40516;DHT22;26216;53.724;9.898;2023-07-20T06:23:47;20.10;97.30
40516;DHT22;26216;53.724;9.898;2023-07-20T06:26:14;20.10;97.20
40516;DHT22;26216;53.724;9.898;2023-07-20T06:28:46;20.20;97.30
40516;DHT22;26216;53.724;9.898;2023-07-20T06:31:14;20.20;97.10
40516;DHT22;26216;53.724;9.898;2023-07-20T06:33:41;20.30;96.80
40516;DHT22;26216;53.724;9.898;2023-07-20T06:36:09;20.40;96.60
40516;DHT22;26216;53.724;9.898;2023-07-20T06:38:37;20.40;96.20
40516;DHT22;26216;53.724;9.898;2023-07-20T06:41:12;20.50;96.50
40516;DHT22;26216;53.724;9.898;2023-07-20T06:43:42;20.50;96.30
40516;DHT22;26216;53.724;9.898;2023-07-20T06:46:09;20.60;96.00
40516;DHT22;26216;53.724;9.898;2023-07-20T06:48:42;20.60;96.00
40516;DHT22;26216;53.724;9.898;2023-07-20T06:51:10;20.70;96.30
40516;DHT22;26216;53.724;9.898;2023-07-20T06:53:37;20.80;96.00
40516;DHT22;26216;53.724;9.898;2023-07-20T06:56:07;20.80;95.60
40516;DHT22;26216;53.724;9.898;2023-07-20T06:58:34;20.80;95.20
40516;DHT22;26216;53.724;9.898;2023-07-20T07:01:07;20.90;94.80
40516;DHT22;26216;53.724;9.898;2023-07-20T07:03:37;21.00;94.70
40516;DHT22;26216;53.724;9.898;2023-07-20T07:06:14;21.10;94.40
40516;DHT22;26216;53.724;9.898;2023-07-20T07:08:42;21.10;93.20
40516;DHT22;26216;53.724;9.898;2023-07-20T07:11:14;21.10;93.40
40516;DHT22;26216;53.724;9.898;2023-07-20T07:13:42;21.20;93.70
40516;DHT22;26216;53.724;9.898;2023-07-20T07:16:22;21.20;93.40
40516;DHT22;26216;53.724;9.898;2023-07-20T07:18:51;21.30;92.80
40516;DHT22;26216;53.724;9.898;2023-07-20T07:21:23;21.30;93.10
40516;DHT22;26216;53.724;9.898;2023-07-20T07:23:53;21.30;92.40
40516;DHT22;26216;53.724;9.898;2023-07-20T07:26:26;21.20;91.80
40516;DHT22;26216;53.724;9.898;2023-07-20T07:29:12;21.10;92.30
40516;DHT22;26216;53.724;9.898;2023-07-20T07:31:43;21.10;92.60
40516;DHT22;26216;53.724;9.898;2023-07-20T07:34:16;20.90;92.50
40516;DHT22;26216;53.724;9.898;2023-07-20T07:36:52;20.90;92.80
40516;DHT22;26216;53.724;9.898;2023-07-20T07:39:20;20.80;93.00
40516;DHT22;26216;53.724;9.898;2023-07-20T07:41:54;20.70;93.20
40516;DHT22;26216;53.724;9.898;2023-07-20T07:44:21;20.60;93.60
40516;DHT22;26216;53.724;9.898;2023-07-20T07:46:51;20.60;93.80
40516;DHT22;26216;53.724;9.898;2023-07-20T07:49:19;20.60;93.80
40516;DHT22;26216;53.724;9.898;2023-07-20T07:51:48;20.60;94.00
40516;DHT22;26216;53.724;9.898;2023-07-20T07:54:15;20.70;94.30
40516;DHT22;26216;53.724;9.898;2023-07-20T07:56:45;20.80;94.30
40516;DHT22;26216;53.724;9.898;2023-07-20T07:59:17;20.90;94.60
40516;DHT22;26216;53.724;9.898;2023-07-20T08:01:45;21.00;94.80
40516;DHT22;26216;53.724;9.898;2023-07-20T08:04:12;21.00;94.50
40516;DHT22;26216;53.724;9.898;2023-07-20T08:06:44;21.10;93.00
40516;DHT22;26216;53.724;9.898;2023-07-20T08:09:14;21.10;93.00
40516;DHT22;26216;53.724;9.898;2023-07-20T08:11:48;21.00;92.90
40516;DHT22;26216;53.724;9.898;2023-07-20T08:14:16;21.00;92.80
40516;DHT22;26216;53.724;9.898;2023-07-20T08:16:44;21.00;93.30
40516;DHT22;26216;53.724;9.898;2023-07-20T08:19:13;21.10;93.40
40516;DHT22;26216;53.724;9.898;2023-07-20T08:21:41;21.10;91.80
40516;DHT22;26216;53.724;9.898;2023-07-20T08:24:24;21.10;91.90
40516;DHT22;26216;53.724;9.898;2023-07-20T08:26:57;21.10;91.90
40516;DHT22;26216;53.724;9.898;2023-07-20T08:29:25;21.10;92.40
40516;DHT22;26216;53.724;9.898;2023-07-20T08:31:55;21.20;92.10
40516;DHT22;26216;53.724;9.898;2023-07-20T08:34:27;21.20;91.90
40516;DHT22;26216;53.724;9.898;2023-07-20T08:36:58;21.20;92.20
40516;DHT22;26216;53.724;9.898;2023-07-20T08:39:45;21.30;90.00
40516;DHT22;26216;53.724;9.898;2023-07-20T08:42:28;21.20;89.00
40516;DHT22;26216;53.724;9.898;2023-07-20T08:44:59;21.30;89.90
40516;DHT22;26216;53.724;9.898;2023-07-20T08:47:36;21.30;87.10
40516;DHT22;26216;53.724;9.898;2023-07-20T08:50:08;21.30;87.90
40516;DHT22;26216;53.724;9.898;2023-07-20T08:52:37;21.40;85.70
40516;DHT22;26216;53.724;9.898;2023-07-20T08:55:09;21.50;85.40
40516;DHT22;26216;53.724;9.898;2023-07-20T08:57:36;21.60;86.10
40516;DHT22;26216;53.724;9.898;2023-07-20T09:00:07;21.70;85.90
40516;DHT22;26216;53.724;9.898;2023-07-20T09:02:46;21.80;86.50
40516;DHT22;26216;53.724;9.898;2023-07-20T09:05:15;21.80;87.60
40516;DHT22;26216;53.724;9.898;2023-07-20T09:07:46;21.90;88.40
40516;DHT22;26216;53.724;9.898;2023-07-20T09:10:13;21.90;87.30
40516;DHT22;26216;53.724;9.898;2023-07-20T09:12:51;21.80;88.00
40516;DHT22;26216;53.724;9.898;2023-07-20T09:15:19;21.70;88.30
40516;DHT22;26216;53.724;9.898;2023-07-20T09:17:50;21.50;89.00
40516;DHT22;26216;53.724;9.898;2023-07-20T09:20:23;21.40;89.20
40516;DHT22;26216;53.724;9.898;2023-07-20T09:22:52;21.20;90.30
40516;DHT22;26216;53.724;9.898;2023-07-20T09:25:21;21.10;90.60
40516;DHT22;26216;53.724;9.898;2023-07-20T09:28:03;21.10;90.10
40516;DHT22;26216;53.724;9.898;2023-07-20T09:30:32;21.10;89.80
40516;DHT22;26216;53.724;9.898;2023-07-20T09:33:05;21.00;89.50
40516;DHT22;26216;53.724;9.898;2023-07-20T09:35:33;21.10;90.50
40516;DHT22;26216;53.724;9.898;2023-07-20T09:38:01;21.10;89.90
40516;DHT22;26216;53.724;9.898;2023-07-20T09:40:36;21.20;90.30
40516;DHT22;26216;53.724;9.898;2023-07-20T09:43:08;21.30;90.80
40516;DHT22;26216;53.724;9.898;2023-07-20T09:45:41;21.40;90.60
40516;DHT22;26216;53.724;9.898;2023-07-20T09:48:13;21.50;91.10
40516;DHT22;26216;53.724;9.898;2023-07-20T09:50:43;21.60;91.10
40516;DHT22;26216;53.724;9.898;2023-07-20T09:53:21;21.80;90.80
40516;DHT22;26216;53.724;9.898;2023-07-20T09:55:51;21.90;90.10
40516;DHT22;26216;53.724;9.898;2023-07-20T09:58:27;22.00;89.40
40516;DHT22;26216;53.724;9.898;2023-07-20T10:00:58;22.10;88.10
40516;DHT22;26216;53.724;9.898;2023-07-20T10:03:29;22.00;90.50
40516;DHT22;26216;53.724;9.898;2023-07-20T10:06:08;21.90;90.50
40516;DHT22;26216;53.724;9.898;2023-07-20T10:08:39;21.50;90.70
40516;DHT22;26216;53.724;9.898;2023-07-20T10:11:15;21.30;91.10
40516;DHT22;26216;53.724;9.898;2023-07-20T10:14:04;21.10;91.30
40516;DHT22;26216;53.724;9.898;2023-07-20T10:16:50;20.80;91.90
40516;DHT22;26216;53.724;9.898;2023-07-20T10:19:47;20.60;92.60
40516;DHT22;26216;53.724;9.898;2023-07-20T10:22:26;20.50;92.20
40516;DHT22;26216;53.724;9.898;2023-07-20T10:25:00;20.30;92.80
40516;DHT22;26216;53.724;9.898;2023-07-20T10:27:30;20.30;93.10
40516;DHT22;26216;53.724;9.898;2023-07-20T10:30:01;20.10;93.60
40516;DHT22;26216;53.724;9.898;2023-07-20T10:32:37;20.10;94.60
40516;DHT22;26216;53.724;9.898;2023-07-20T10:35:13;20.10;94.90
40516;DHT22;26216;53.724;9.898;2023-07-20T10:38:04;20.10;95.20
40516;DHT22;26216;53.724;9.898;2023-07-20T10:41:39;20.20;93.60
40516;DHT22;26216;53.724;9.898;2023-07-20T10:44:08;20.20;93.90
40516;DHT22;26216;53.724;9.898;2023-07-20T10:47:01;20.30;93.80
40516;DHT22;26216;53.724;9.898;2023-07-20T10:49:32;20.20;93.40
40516;DHT22;26216;53.724;9.898;2023-07-20T10:52:07;20.20;93.70
40516;DHT22;26216;53.724;9.898;2023-07-20T10:54:47;20.20;94.10
40516;DHT22;26216;53.724;9.898;2023-07-20T10:57:23;20.20;94.40
40516;DHT22;26216;53.724;9.898;2023-07-20T10:59:50;20.30;95.10
40516;DHT22;26216;53.724;9.898;2023-07-20T11:02:25;20.40;95.50
40516;DHT22;26216;53.724;9.898;2023-07-20T11:05:35;20.50;93.80
40516;DHT22;26216;53.724;9.898;2023-07-20T11:08:05;20.50;93.20
40516;DHT22;26216;53.724;9.898;2023-07-20T11:10:34;20.50;94.00
40516;DHT22;26216;53.724;9.898;2023-07-20T11:13:21;20.60;94.10
40516;DHT22;26216;53.724;9.898;2023-07-20T11:18:44;20.80;94.00
40516;DHT22;26216;53.724;9.898;2023-07-20T11:21:15;20.90;94.00
40516;DHT22;26216;53.724;9.898;2023-07-20T11:23:44;21.00;94.10
40516;DHT22;26216;53.724;9.898;2023-07-20T11:26:18;21.20;93.70
40516;DHT22;26216;53.724;9.898;2023-07-20T11:28:53;21.30;92.20
40516;DHT22;26216;53.724;9.898;2023-07-20T11:31:24;21.30;91.90
40516;DHT22;26216;53.724;9.898;2023-07-20T11:33:51;21.30;92.20
40516;DHT22;26216;53.724;9.898;2023-07-20T11:36:33;21.30;92.00
40516;DHT22;26216;53.724;9.898;2023-07-20T11:39:03;21.10;92.10
40516;DHT22;26216;53.724;9.898;2023-07-20T11:41:31;20.90;92.20
40516;DHT22;26216;53.724;9.898;2023-07-20T11:43:58;20.80;92.30
40516;DHT22;26216;53.724;9.898;2023-07-20T11:46:24;20.60;92.40
40516;DHT22;26216;53.724;9.898;2023-07-20T11:48:58;20.40;92.60
40516;DHT22;26216;53.724;9.898;2023-07-20T11:51:30;20.30;93.10
40516;DHT22;26216;53.724;9.898;2023-07-20T11:53:57;20.10;93.50
40516;DHT22;26216;53.724;9.898;2023-07-20T11:56:25;19.90;94.00
40516;DHT22;26216;53.724;9.898;2023-07-20T11:58:55;19.80;94.60
40516;DHT22;26216;53.724;9.898;2023-07-20T12:01:23;19.70;95.10
40516;DHT22;26216;53.724;9.898;2023-07-20T12:03:49;19.60;95.50
40516;DHT22;26216;53.724;9.898;2023-07-20T12:06:16;19.60;95.70
40516;DHT22;26216;53.724;9.898;2023-07-20T12:08:42;19.60;95.00
40516;DHT22;26216;53.724;9.898;2023-07-20T12:11:08;19.50;95.20
40516;DHT22;26216;53.724;9.898;2023-07-20T12:13:43;19.50;95.40
40516;DHT22;26216;53.724;9.898;2023-07-20T12:16:16;19.50;95.90
40516;DHT22;26216;53.724;9.898;2023-07-20T12:18:43;19.50;95.50
40516;DHT22;26216;53.724;9.898;2023-07-20T12:21:10;19.50;95.50
40516;DHT22;26216;53.724;9.898;2023-07-20T12:23:40;19.50;95.60
40516;DHT22;26216;53.724;9.898;2023-07-20T12:26:08;19.60;95.70
40516;DHT22;26216;53.724;9.898;2023-07-20T12:28:40;19.60;95.80
40516;DHT22;26216;53.724;9.898;2023-07-20T12:31:09;19.70;95.30
40516;DHT22;26216;53.724;9.898;2023-07-20T12:33:37;19.70;94.50
40516;DHT22;26216;53.724;9.898;2023-07-20T12:36:04;19.70;93.80
40516;DHT22;26216;53.724;9.898;2023-07-20T12:38:30;19.80;94.30
40516;DHT22;26216;53.724;9.898;2023-07-20T12:40:57;19.80;93.50
40516;DHT22;26216;53.724;9.898;2023-07-20T12:43:24;19.90;93.90
40516;DHT22;26216;53.724;9.898;2023-07-20T12:45:50;20.00;93.80
40516;DHT22;26216;53.724;9.898;2023-07-20T12:48:16;20.10;93.90
40516;DHT22;26216;53.724;9.898;2023-07-20T12:50:41;20.10;94.40
40516;DHT22;26216;53.724;9.898;2023-07-20T12:53:07;20.30;94.70
40516;DHT22;26216;53.724;9.898;2023-07-20T12:55:33;20.40;94.20
40516;DHT22;26216;53.724;9.898;2023-07-20T12:57:59;20.50;93.00
40516;DHT22;26216;53.724;9.898;2023-07-20T13:00:25;20.60;93.00
40516;DHT22;26216;53.724;9.898;2023-07-20T13:02:52;20.70;92.80
40516;DHT22;26216;53.724;9.898;2023-07-20T13:05:18;20.70;92.90
40516;DHT22;26216;53.724;9.898;2023-07-20T13:07:44;20.70;92.50
40516;DHT22;26216;53.724;9.898;2023-07-20T13:10:11;20.70;93.00
40516;DHT22;26216;53.724;9.898;2023-07-20T13:12:37;20.80;93.60
40516;DHT22;26216;53.724;9.898;2023-07-20T13:15:05;20.80;92.60
40516;DHT22;26216;53.724;9.898;2023-07-20T13:17:36;21.00;92.50
40516;DHT22;26216;53.724;9.898;2023-07-20T13:20:03;21.10;91.80
40516;DHT22;26216;53.724;9.898;2023-07-20T13:22:30;21.10;91.40
40516;DHT22;26216;53.724;9.898;2023-07-20T13:24:56;21.20;90.70
40516;DHT22;26216;53.724;9.898;2023-07-20T13:27:22;21.20;90.90
40516;DHT22;26216;53.724;9.898;2023-07-20T13:29:48;21.20;91.20
40516;DHT22;26216;53.724;9.898;2023-07-20T13:32:14;21.30;90.80
40516;DHT22;26216;53.724;9.898;2023-07-20T13:34:41;21.30;90.30
40516;DHT22;26216;53.724;9.898;2023-07-20T13:37:08;21.30;89.40
40516;DHT22;26216;53.724;9.898;2023-07-20T13:39:35;21.30;90.50
40516;DHT22;26216;53.724;9.898;2023-07-20T13:42:01;21.30;90.80
40516;DHT22;26216;53.724;9.898;2023-07-20T13:44:29;21.40;89.60
40516;DHT22;26216;53.724;9.898;2023-07-20T13:46:55;21.40;85.30
40516;DHT22;26216;53.724;9.898;2023-07-20T13:49:21;21.40;85.90
40516;DHT22;26216;53.724;9.898;2023-07-20T13:51:47;21.40;85.10
40516;DHT22;26216;53.724;9.898;2023-07-20T13:54:13;21.50;84.30
40516;DHT22;26216;53.724;9.898;2023-07-20T13:56:39;21.50;85.90
40516;DHT22;26216;53.724;9.898;2023-07-20T13:59:05;21.60;86.70
40516;DHT22;26216;53.724;9.898;2023-07-20T14:01:31;21.60;86.90
40516;DHT22;26216;53.724;9.898;2023-07-20T14:04:00;21.60;87.20
40516;DHT22;26216;53.724;9.898;2023-07-20T14:06:30;21.70;86.80
40516;DHT22;26216;53.724;9.898;2023-07-20T14:08:56;21.80;86.40
40516;DHT22;26216;53.724;9.898;2023-07-20T14:11:23;21.90;86.30
40516;DHT22;26216;53.724;9.898;2023-07-20T14:13:50;21.90;85.60
40516;DHT22;26216;53.724;9.898;2023-07-20T14:16:17;22.00;84.60
40516;DHT22;26216;53.724;9.898;2023-07-20T14:18:43;22.10;85.60
40516;DHT22;26216;53.724;9.898;2023-07-20T14:21:11;22.10;83.70
40516;DHT22;26216;53.724;9.898;2023-07-20T14:23:37;22.10;84.80
40516;DHT22;26216;53.724;9.898;2023-07-20T14:26:03;22.10;84.10
40516;DHT22;26216;53.724;9.898;2023-07-20T14:28:31;22.20;86.60
40516;DHT22;26216;53.724;9.898;2023-07-20T14:30:58;22.20;86.50
40516;DHT22;26216;53.724;9.898;2023-07-20T14:33:24;22.30;85.20
40516;DHT22;26216;53.724;9.898;2023-07-20T14:35:50;22.40;84.60
40516;DHT22;26216;53.724;9.898;2023-07-20T14:38:16;22.40;86.00
40516;DHT22;26216;53.724;9.898;2023-07-20T14:40:42;22.40;83.70
40516;DHT22;26216;53.724;9.898;2023-07-20T14:43:08;22.50;84.70
40516;DHT22;26216;53.724;9.898;2023-07-20T14:45:34;22.60;83.10
40516;DHT22;26216;53.724;9.898;2023-07-20T14:48:01;22.70;84.10
40516;DHT22;26216;53.724;9.898;2023-07-20T14:50:27;22.70;83.30
40516;DHT22;26216;53.724;9.898;2023-07-20T14:52:52;22.80;82.90
40516;DHT22;26216;53.724;9.898;2023-07-20T14:55:18;22.80;80.50
40516;DHT22;26216;53.724;9.898;2023-07-20T14:57:44;22.80;81.70
40516;DHT22;26216;53.724;9.898;2023-07-20T15:00:11;22.80;81.00
40516;DHT22;26216;53.724;9.898;2023-07-20T15:02:38;22.80;83.50
40516;DHT22;26216;53.724;9.898;2023-07-20T15:05:09;22.90;81.80
40516;DHT22;26216;53.724;9.898;2023-07-20T15:07:35;23.00;82.00
40516;DHT22;26216;53.724;9.898;2023-07-20T15:10:02;23.10;82.10
40516;DHT22;26216;53.724;9.898;2023-07-20T15:12:30;23.20;82.30
40516;DHT22;26216;53.724;9.898;2023-07-20T15:15:22;23.30;82.50
40516;DHT22;26216;53.724;9.898;2023-07-20T15:17:48;23.50;81.20
40516;DHT22;26216;53.724;9.898;2023-07-20T15:20:15;23.50;80.00
40516;DHT22;26216;53.724;9.898;2023-07-20T15:22:42;23.60;79.40
40516;DHT22;26216;53.724;9.898;2023-07-20T15:25:09;23.60;78.70
40516;DHT22;26216;53.724;9.898;2023-07-20T15:27:39;23.70;81.10
40516;DHT22;26216;53.724;9.898;2023-07-20T15:30:07;23.80;80.90
40516;DHT22;26216;53.724;9.898;2023-07-20T15:32:32;23.80;80.50
40516;DHT22;26216;53.724;9.898;2023-07-20T15:34:58;23.80;80.20
40516;DHT22;26216;53.724;9.898;2023-07-20T15:37:24;23.80;79.30
40516;DHT22;26216;53.724;9.898;2023-07-20T15:39:50;23.80;77.40
40516;DHT22;26216;53.724;9.898;2023-07-20T15:42:16;23.70;77.00
40516;DHT22;26216;53.724;9.898;2023-07-20T15:44:42;23.70;78.50
40516;DHT22;26216;53.724;9.898;2023-07-20T15:47:08;23.70;79.60
40516;DHT22;26216;53.724;9.898;2023-07-20T15:49:36;23.90;80.10
40516;DHT22;26216;53.724;9.898;2023-07-20T15:52:02;24.10;78.00
40516;DHT22;26216;53.724;9.898;2023-07-20T15:54:28;24.40;75.50